sensor_id;sensor_type;location;lat;lon;timestamp;pressure;altitude;pressure_sealevel;temperature;humidity
59043;BME280;44826;51.596;5.624;2022-12-10T00:01:41;100790.50;;;-2.51;86.18
59043;BME280;44826;51.596;5.624;2022-12-10T00:04:07;100788.66;;;-2.56;86.04
59043;BME280;44826;51.596;5.624;2022-12-10T00:06:34;100792.78;;;-2.60;86.24
59043;BME280;44826;51.596;5.624;2022-12-10T00:09:01;100785.19;;;-2.58;86.53
59043;BME280;44826;51.596;5.624;2022-12-10T00:11:27;100784.31;;;-2.59;86.42
59043;BME280;44826;51.596;5.624;2022-12-10T00:13:53;100785.09;;;-2.62;86.49
59043;BME280;44826;51.596;5.624;2022-12-10T00:16:20;100793.56;;;-2.63;86.25
59043;BME280;44826;51.596;5.624;2022-12-10T00:18:47;100794.38;;;-2.64;86.22
59043;BME280;44826;51.596;5.624;2022-12-10T00:21:15;100799.44;;;-2.65;86.62
59043;BME280;44826;51.596;5.624;2022-12-10T00:23:41;100796.84;;;-2.67;85.66
59043;BME280;44826;51.596;5.624;2022-12-10T00:26:11;100800.13;;;-2.71;86.03
59043;BME280;44826;51.596;5.624;2022-12-10T00:28:38;100793.25;;;-2.75;86.37
59043;BME280;44826;51.596;5.624;2022-12-10T00:31:10;100800.00;;;-2.76;86.00
59043;BME280;44826;51.596;5.624;2022-12-10T00:33:36;100794.91;;;-2.76;86.26
59043;BME280;44826;51.596;5.624;2022-12-10T00:36:10;100790.69;;;-2.75;87.00
59043;BME280;44826;51.596;5.624;2022-12-10T00:38:36;100789.00;;;-2.75;86.06
59043;BME280;44826;51.596;5.624;2022-12-10T00:41:02;100793.25;;;-2.75;86.39
59043;BME280;44826;51.596;5.624;2022-12-10T00:43:28;100788.09;;;-2.77;86.97
59043;BME280;44826;51.596;5.624;2022-12-10T00:45:53;100789.88;;;-2.74;86.79
59043;BME280;44826;51.596;5.624;2022-12-10T00:48:19;100795.13;;;-2.68;86.63
59043;BME280;44826;51.596;5.624;2022-12-10T00:53:26;100793.25;;;-2.73;85.98
59043;BME280;44826;51.596;5.624;2022-12-10T00:55:52;100789.78;;;-2.77;86.44
59043;BME280;44826;51.596;5.624;2022-12-10T00:58:18;100787.97;;;-2.81;86.86
59043;BME280;44826;51.596;5.624;2022-12-10T01:00:43;100784.50;;;-2.83;86.52
59043;BME280;44826;51.596;5.624;2022-12-10T01:03:08;100775.84;;;-2.90;86.87
59043;BME280;44826;51.596;5.624;2022-12-10T01:05:33;100769.03;;;-2.90;86.79
59043;BME280;44826;51.596;5.624;2022-12-10T01:07:59;100771.53;;;-2.93;86.99
59043;BME280;44826;51.596;5.624;2022-12-10T01:10:24;100772.34;;;-2.94;86.85
59043;BME280;44826;51.596;5.624;2022-12-10T01:12:49;100775.66;;;-2.96;86.49
59043;BME280;44826;51.596;5.624;2022-12-10T01:15:14;100779.97;;;-2.94;86.58
59043;BME280;44826;51.596;5.624;2022-12-10T01:17:40;100783.34;;;-2.95;86.88
59043;BME280;44826;51.596;5.624;2022-12-10T01:20:05;100796.91;;;-2.96;86.68
59043;BME280;44826;51.596;5.624;2022-12-10T01:22:31;100795.19;;;-2.95;86.14
59043;BME280;44826;51.596;5.624;2022-12-10T01:24:57;100802.81;;;-2.97;86.40
59043;BME280;44826;51.596;5.624;2022-12-10T01:27:22;100807.88;;;-2.97;86.66
59043;BME280;44826;51.596;5.624;2022-12-10T01:29:47;100800.13;;;-3.01;86.30
59043;BME280;44826;51.596;5.624;2022-12-10T01:32:12;100800.06;;;-3.03;86.29
59043;BME280;44826;51.596;5.624;2022-12-10T01:34:38;100797.53;;;-3.03;86.51
59043;BME280;44826;51.596;5.624;2022-12-10T01:37:03;100801.75;;;-3.03;86.54
59043;BME280;44826;51.596;5.624;2022-12-10T01:39:28;100809.34;;;-3.05;85.88
59043;BME280;44826;51.596;5.624;2022-12-10T01:41:56;100811.03;;;-3.06;86.67
59043;BME280;44826;51.596;5.624;2022-12-10T01:46:49;100813.56;;;-3.06;86.52
59043;BME280;44826;51.596;5.624;2022-12-10T01:49:17;100806.84;;;-3.03;86.79
59043;BME280;44826;51.596;5.624;2022-12-10T01:51:45;100814.53;;;-3.02;87.44
59043;BME280;44826;51.596;5.624;2022-12-10T01:56:46;100813.16;;;-2.91;88.02
59043;BME280;44826;51.596;5.624;2022-12-10T01:59:14;100807.28;;;-2.88;87.89
59043;BME280;44826;51.596;5.624;2022-12-10T02:04:29;100805.78;;;-2.81;88.15
59043;BME280;44826;51.596;5.624;2022-12-10T02:07:03;100801.59;;;-2.79;87.64
59043;BME280;44826;51.596;5.624;2022-12-10T02:09:38;100805.91;;;-2.77;88.18
59043;BME280;44826;51.596;5.624;2022-12-10T02:12:32;100802.66;;;-2.71;88.63
59043;BME280;44826;51.596;5.624;2022-12-10T02:15:04;100806.13;;;-2.69;88.32
59043;BME280;44826;51.596;5.624;2022-12-10T02:17:46;100802.03;;;-2.64;88.76
59043;BME280;44826;51.596;5.624;2022-12-10T02:20:20;100810.56;;;-2.62;88.86
59043;BME280;44826;51.596;5.624;2022-12-10T02:22:50;100805.56;;;-2.58;89.03
59043;BME280;44826;51.596;5.624;2022-12-10T02:25:20;100807.34;;;-2.54;88.29
59043;BME280;44826;51.596;5.624;2022-12-10T02:28:10;100807.44;;;-2.51;87.67
59043;BME280;44826;51.596;5.624;2022-12-10T02:30:38;100809.91;;;-2.54;88.23
59043;BME280;44826;51.596;5.624;2022-12-10T02:33:05;100809.03;;;-2.56;87.91
59043;BME280;44826;51.596;5.624;2022-12-10T02:35:33;100812.44;;;-2.54;87.97
59043;BME280;44826;51.596;5.624;2022-12-10T02:38:14;100809.09;;;-2.53;87.83
59043;BME280;44826;51.596;5.624;2022-12-10T02:40:45;100808.16;;;-2.57;88.64
59043;BME280;44826;51.596;5.624;2022-12-10T02:43:13;100809.03;;;-2.56;88.39
59043;BME280;44826;51.596;5.624;2022-12-10T02:45:41;100801.44;;;-2.53;88.79
59043;BME280;44826;51.596;5.624;2022-12-10T02:48:07;100804.06;;;-2.50;89.15
59043;BME280;44826;51.596;5.624;2022-12-10T02:50:34;100805.81;;;-2.49;89.55
59043;BME280;44826;51.596;5.624;2022-12-10T02:52:59;100806.75;;;-2.46;89.49
59043;BME280;44826;51.596;5.624;2022-12-10T02:55:24;100804.25;;;-2.44;89.00
59043;BME280;44826;51.596;5.624;2022-12-10T02:58:15;100804.25;;;-2.44;89.25
59043;BME280;44826;51.596;5.624;2022-12-10T03:00:50;100806.81;;;-2.44;88.65
59043;BME280;44826;51.596;5.624;2022-12-10T03:03:39;100813.56;;;-2.45;89.37
59043;BME280;44826;51.596;5.624;2022-12-10T03:08:42;100816.94;;;-2.46;89.02
59043;BME280;44826;51.596;5.624;2022-12-10T03:11:13;100809.25;;;-2.47;88.48
59043;BME280;44826;51.596;5.624;2022-12-10T03:13:47;100812.72;;;-2.45;88.93
59043;BME280;44826;51.596;5.624;2022-12-10T03:16:16;100809.34;;;-2.44;88.97
59043;BME280;44826;51.596;5.624;2022-12-10T03:18:43;100804.19;;;-2.46;88.84
59043;BME280;44826;51.596;5.624;2022-12-10T03:21:11;100813.56;;;-2.45;88.97
59043;BME280;44826;51.596;5.624;2022-12-10T03:23:39;100814.44;;;-2.44;89.16
59043;BME280;44826;51.596;5.624;2022-12-10T03:26:06;100815.34;;;-2.42;89.20
59043;BME280;44826;51.596;5.624;2022-12-10T03:28:37;100819.69;;;-2.38;89.31
59043;BME280;44826;51.596;5.624;2022-12-10T03:31:04;100816.31;;;-2.37;88.51
59043;BME280;44826;51.596;5.624;2022-12-10T03:33:31;100812.09;;;-2.36;88.79
59043;BME280;44826;51.596;5.624;2022-12-10T03:35:58;100815.56;;;-2.34;89.15
59043;BME280;44826;51.596;5.624;2022-12-10T03:38:23;100805.41;;;-2.33;88.64
59043;BME280;44826;51.596;5.624;2022-12-10T03:40:49;100810.56;;;-2.31;88.71
59043;BME280;44826;51.596;5.624;2022-12-10T03:43:14;100822.41;;;-2.32;88.62
59043;BME280;44826;51.596;5.624;2022-12-10T03:45:40;100820.69;;;-2.33;88.95
59043;BME280;44826;51.596;5.624;2022-12-10T03:48:06;100822.41;;;-2.32;89.30
59043;BME280;44826;51.596;5.624;2022-12-10T03:50:31;100818.22;;;-2.30;89.34
59043;BME280;44826;51.596;5.624;2022-12-10T03:52:56;100815.75;;;-2.26;88.70
59043;BME280;44826;51.596;5.624;2022-12-10T03:55:21;100826.81;;;-2.26;88.71
59043;BME280;44826;51.596;5.624;2022-12-10T03:57:47;100829.31;;;-2.27;89.39
59043;BME280;44826;51.596;5.624;2022-12-10T04:00:13;100825.84;;;-2.31;89.05
59043;BME280;44826;51.596;5.624;2022-12-10T04:02:39;100829.16;;;-2.34;88.78
59043;BME280;44826;51.596;5.624;2022-12-10T04:05:04;100829.16;;;-2.34;88.86
59043;BME280;44826;51.596;5.624;2022-12-10T04:07:31;100828.31;;;-2.34;89.62
59043;BME280;44826;51.596;5.624;2022-12-10T04:09:56;100832.56;;;-2.33;89.13
59043;BME280;44826;51.596;5.624;2022-12-10T04:12:22;100834.25;;;-2.34;89.60
59043;BME280;44826;51.596;5.624;2022-12-10T04:14:47;100833.41;;;-2.33;89.44
59043;BME280;44826;51.596;5.624;2022-12-10T04:17:32;100837.72;;;-2.30;89.39
59043;BME280;44826;51.596;5.624;2022-12-10T04:19:58;100833.53;;;-2.28;89.98
59043;BME280;44826;51.596;5.624;2022-12-10T04:22:23;100833.59;;;-2.26;89.45
59043;BME280;44826;51.596;5.624;2022-12-10T04:25:10;100837.06;;;-2.24;89.55
59043;BME280;44826;51.596;5.624;2022-12-10T04:27:54;100831.13;;;-2.23;89.61
59043;BME280;44826;51.596;5.624;2022-12-10T04:30:20;100833.69;;;-2.23;90.23
59043;BME280;44826;51.596;5.624;2022-12-10T04:32:45;100841.34;;;-2.23;89.95
59043;BME280;44826;51.596;5.624;2022-12-10T04:35:10;100837.09;;;-2.21;90.04
59043;BME280;44826;51.596;5.624;2022-12-10T04:37:35;100842.28;;;-2.18;89.64
59043;BME280;44826;51.596;5.624;2022-12-10T04:40:01;100838.94;;;-2.17;90.04
59043;BME280;44826;51.596;5.624;2022-12-10T04:42:27;100835.63;;;-2.15;89.70
59043;BME280;44826;51.596;5.624;2022-12-10T04:44:53;100833.91;;;-2.14;90.22
59043;BME280;44826;51.596;5.624;2022-12-10T04:47:18;100836.47;;;-2.14;90.18
59043;BME280;44826;51.596;5.624;2022-12-10T04:49:43;100839.00;;;-2.14;90.00
59043;BME280;44826;51.596;5.624;2022-12-10T04:52:11;100837.38;;;-2.12;90.45
59043;BME280;44826;51.596;5.624;2022-12-10T04:54:36;100838.28;;;-2.10;89.99
59043;BME280;44826;51.596;5.624;2022-12-10T04:57:02;100845.09;;;-2.09;89.66
59043;BME280;44826;51.596;5.624;2022-12-10T04:59:27;100838.38;;;-2.07;90.29
59043;BME280;44826;51.596;5.624;2022-12-10T05:01:52;100838.38;;;-2.07;90.75
59043;BME280;44826;51.596;5.624;2022-12-10T05:04:18;100844.34;;;-2.05;90.06
59043;BME280;44826;51.596;5.624;2022-12-10T05:06:44;100846.00;;;-2.07;90.41
59043;BME280;44826;51.596;5.624;2022-12-10T05:09:11;100849.38;;;-2.08;90.21
59043;BME280;44826;51.596;5.624;2022-12-10T05:11:37;100839.19;;;-2.08;90.37
59043;BME280;44826;51.596;5.624;2022-12-10T05:14:02;100845.13;;;-2.07;90.16
59043;BME280;44826;51.596;5.624;2022-12-10T05:16:30;100839.22;;;-2.06;90.68
59043;BME280;44826;51.596;5.624;2022-12-10T05:18:56;100836.69;;;-2.05;90.62
59043;BME280;44826;51.596;5.624;2022-12-10T05:21:23;100841.88;;;-2.02;89.92
59043;BME280;44826;51.596;5.624;2022-12-10T05:23:51;100834.22;;;-2.02;89.62
59043;BME280;44826;51.596;5.624;2022-12-10T05:26:21;100844.41;;;-2.03;89.99
59043;BME280;44826;51.596;5.624;2022-12-10T05:28:55;100841.84;;;-2.03;90.61
59043;BME280;44826;51.596;5.624;2022-12-10T05:31:23;100843.56;;;-2.02;90.37
59043;BME280;44826;51.596;5.624;2022-12-10T05:33:50;100846.16;;;-2.01;90.47
59043;BME280;44826;51.596;5.624;2022-12-10T05:36:18;100849.50;;;-2.02;90.80
59043;BME280;44826;51.596;5.624;2022-12-10T05:38:44;100844.41;;;-2.02;90.27
59043;BME280;44826;51.596;5.624;2022-12-10T05:41:15;100846.06;;;-2.04;90.19
59043;BME280;44826;51.596;5.624;2022-12-10T05:43:42;100852.88;;;-2.04;91.00
59043;BME280;44826;51.596;5.624;2022-12-10T05:46:10;100851.97;;;-2.05;90.52
59043;BME280;44826;51.596;5.624;2022-12-10T05:48:37;100851.94;;;-2.08;90.77
59043;BME280;44826;51.596;5.624;2022-12-10T05:51:14;100849.38;;;-2.08;90.18
59043;BME280;44826;51.596;5.624;2022-12-10T05:53:41;100845.13;;;-2.07;90.16
59043;BME280;44826;51.596;5.624;2022-12-10T05:56:15;100845.19;;;-2.06;90.70
59043;BME280;44826;51.596;5.624;2022-12-10T05:58:43;100851.16;;;-2.04;90.29
59043;BME280;44826;51.596;5.624;2022-12-10T06:01:11;100859.72;;;-2.02;90.54
59043;BME280;44826;51.596;5.624;2022-12-10T06:03:37;100858.91;;;-2.01;90.25
59043;BME280;44826;51.596;5.624;2022-12-10T06:06:03;100863.16;;;-2.00;90.26
59043;BME280;44826;51.596;5.624;2022-12-10T06:08:28;100854.69;;;-1.99;90.25
59043;BME280;44826;51.596;5.624;2022-12-10T06:10:54;100853.06;;;-1.96;90.23
59043;BME280;44826;51.596;5.624;2022-12-10T06:13:19;100856.50;;;-1.94;89.99
59043;BME280;44826;51.596;5.624;2022-12-10T06:15:45;100849.69;;;-1.95;90.83
59043;BME280;44826;51.596;5.624;2022-12-10T06:18:10;100847.97;;;-1.96;89.88
59043;BME280;44826;51.596;5.624;2022-12-10T06:20:39;100850.50;;;-1.96;90.36
59043;BME280;44826;51.596;5.624;2022-12-10T06:23:05;100848.78;;;-1.98;90.47
59043;BME280;44826;51.596;5.624;2022-12-10T06:25:30;100850.50;;;-1.96;90.28
59043;BME280;44826;51.596;5.624;2022-12-10T06:27:55;100853.88;;;-1.98;90.31
59043;BME280;44826;51.596;5.624;2022-12-10T06:30:21;100858.16;;;-1.96;90.96
59043;BME280;44826;51.596;5.624;2022-12-10T06:32:46;100854.78;;;-1.95;91.07
59043;BME280;44826;51.596;5.624;2022-12-10T06:35:11;100859.84;;;-1.97;90.53
59043;BME280;44826;51.596;5.624;2022-12-10T06:37:37;100861.53;;;-1.98;90.00
59043;BME280;44826;51.596;5.624;2022-12-10T06:40:03;100860.69;;;-1.98;90.33
59043;BME280;44826;51.596;5.624;2022-12-10T06:42:29;100870.09;;;-1.95;90.49
59043;BME280;44826;51.596;5.624;2022-12-10T06:44:54;100867.53;;;-1.95;90.70
59043;BME280;44826;51.596;5.624;2022-12-10T06:47:20;100871.81;;;-1.94;90.51
59043;BME280;44826;51.596;5.624;2022-12-10T06:49:45;100870.09;;;-1.95;90.40
59043;BME280;44826;51.596;5.624;2022-12-10T06:52:10;100881.28;;;-1.90;91.10
59043;BME280;44826;51.596;5.624;2022-12-10T06:54:36;100877.09;;;-1.88;90.75
59043;BME280;44826;51.596;5.624;2022-12-10T06:57:01;100882.25;;;-1.85;89.91
59043;BME280;44826;51.596;5.624;2022-12-10T06:59:26;100887.31;;;-1.87;90.72
59043;BME280;44826;51.596;5.624;2022-12-10T07:01:51;100883.88;;;-1.87;90.93
59043;BME280;44826;51.596;5.624;2022-12-10T07:04:17;100883.06;;;-1.86;90.27
59043;BME280;44826;51.596;5.624;2022-12-10T07:06:42;100876.22;;;-1.87;90.45
59043;BME280;44826;51.596;5.624;2022-12-10T07:09:08;100879.66;;;-1.87;89.95
59043;BME280;44826;51.596;5.624;2022-12-10T07:11:35;100886.41;;;-1.89;90.54
59043;BME280;44826;51.596;5.624;2022-12-10T07:14:01;100888.84;;;-1.93;90.26
59043;BME280;44826;51.596;5.624;2022-12-10T07:16:29;100891.31;;;-1.96;90.03
59043;BME280;44826;51.596;5.624;2022-12-10T07:18:57;100898.09;;;-1.97;90.08
59043;BME280;44826;51.596;5.624;2022-12-10T07:21:26;100900.59;;;-1.99;89.86
59043;BME280;44826;51.596;5.624;2022-12-10T07:23:53;100895.41;;;-2.02;90.63
59043;BME280;44826;51.596;5.624;2022-12-10T07:26:20;100897.97;;;-2.02;91.09
59043;BME280;44826;51.596;5.624;2022-12-10T07:28:46;100904.03;;;-1.98;91.15
59043;BME280;44826;51.596;5.624;2022-12-10T07:31:11;100909.16;;;-1.96;90.52
59043;BME280;44826;51.596;5.624;2022-12-10T07:33:36;100903.22;;;-1.95;91.04
59043;BME280;44826;51.596;5.624;2022-12-10T07:36:06;100909.19;;;-1.95;91.33
59043;BME280;44826;51.596;5.624;2022-12-10T07:38:32;100906.59;;;-1.96;91.20
59043;BME280;44826;51.596;5.624;2022-12-10T07:40:57;100908.31;;;-1.97;90.19
59043;BME280;44826;51.596;5.624;2022-12-10T07:43:23;100907.41;;;-1.99;90.75
59043;BME280;44826;51.596;5.624;2022-12-10T07:45:48;100913.25;;;-2.02;90.71
59043;BME280;44826;51.596;5.624;2022-12-10T07:48:13;100915.72;;;-2.05;90.73
59043;BME280;44826;51.596;5.624;2022-12-10T07:50:39;100921.69;;;-2.04;91.10
59043;BME280;44826;51.596;5.624;2022-12-10T07:53:04;100913.22;;;-2.03;91.28
59043;BME280;44826;51.596;5.624;2022-12-10T07:55:30;100928.53;;;-2.02;90.71
59043;BME280;44826;51.596;5.624;2022-12-10T07:57:55;100929.47;;;-2.00;91.43
59043;BME280;44826;51.596;5.624;2022-12-10T08:00:20;100934.56;;;-2.00;90.81
59043;BME280;44826;51.596;5.624;2022-12-10T08:02:45;100933.72;;;-1.99;91.32
59043;BME280;44826;51.596;5.624;2022-12-10T08:05:11;100931.19;;;-1.99;91.34
59043;BME280;44826;51.596;5.624;2022-12-10T08:07:36;100932.91;;;-1.98;91.21
59043;BME280;44826;51.596;5.624;2022-12-10T08:10:02;100936.25;;;-2.00;90.61
59043;BME280;44826;51.596;5.624;2022-12-10T08:12:27;100937.94;;;-2.01;90.65
59043;BME280;44826;51.596;5.624;2022-12-10T08:14:52;100933.63;;;-2.03;90.45
59043;BME280;44826;51.596;5.624;2022-12-10T08:17:18;100942.19;;;-2.01;91.39
59043;BME280;44826;51.596;5.624;2022-12-10T08:19:43;100948.13;;;-2.01;90.86
59043;BME280;44826;51.596;5.624;2022-12-10T08:22:08;100956.69;;;-1.99;91.08
59043;BME280;44826;51.596;5.624;2022-12-10T08:24:34;100957.56;;;-1.98;91.36
59043;BME280;44826;51.596;5.624;2022-12-10T08:26:59;100955.84;;;-1.98;91.54
59043;BME280;44826;51.596;5.624;2022-12-10T08:29:24;100960.13;;;-1.96;91.31
59043;BME280;44826;51.596;5.624;2022-12-10T08:31:49;100955.13;;;-1.93;91.16
59043;BME280;44826;51.596;5.624;2022-12-10T08:34:16;100965.41;;;-1.90;91.81
59043;BME280;44826;51.596;5.624;2022-12-10T08:36:42;100957.00;;;-1.86;91.26
59043;BME280;44826;51.596;5.624;2022-12-10T08:39:08;100958.72;;;-1.85;91.35
59043;BME280;44826;51.596;5.624;2022-12-10T08:41:35;100968.94;;;-1.85;91.02
59043;BME280;44826;51.596;5.624;2022-12-10T08:44:01;100974.84;;;-1.86;91.22
59043;BME280;44826;51.596;5.624;2022-12-10T08:46:26;100972.38;;;-1.85;90.93
59043;BME280;44826;51.596;5.624;2022-12-10T08:48:51;100969.00;;;-1.84;90.76
59043;BME280;44826;51.596;5.624;2022-12-10T08:51:18;100966.47;;;-1.82;91.19
59043;BME280;44826;51.596;5.624;2022-12-10T08:53:44;100966.53;;;-1.80;91.13
59043;BME280;44826;51.596;5.624;2022-12-10T08:56:10;100970.81;;;-1.79;90.28
59043;BME280;44826;51.596;5.624;2022-12-10T08:58:36;100975.13;;;-1.77;91.25
59043;BME280;44826;51.596;5.624;2022-12-10T09:01:10;100986.16;;;-1.78;91.22
59043;BME280;44826;51.596;5.624;2022-12-10T09:03:36;100978.59;;;-1.75;90.93
59043;BME280;44826;51.596;5.624;2022-12-10T09:06:07;100979.41;;;-1.76;91.18
59043;BME280;44826;51.596;5.624;2022-12-10T09:08:33;100981.13;;;-1.75;90.95
59043;BME280;44826;51.596;5.624;2022-12-10T09:13:31;100980.16;;;-1.78;90.65
59043;BME280;44826;51.596;5.624;2022-12-10T09:15:56;100984.41;;;-1.79;91.13
59043;BME280;44826;51.596;5.624;2022-12-10T09:18:22;100980.16;;;-1.78;91.31
59043;BME280;44826;51.596;5.624;2022-12-10T09:20:47;100985.34;;;-1.75;90.85
59043;BME280;44826;51.596;5.624;2022-12-10T09:23:12;100986.31;;;-1.72;91.01
59043;BME280;44826;51.596;5.624;2022-12-10T09:25:38;100988.09;;;-1.69;91.06
59043;BME280;44826;51.596;5.624;2022-12-10T09:28:03;100989.75;;;-1.70;91.58
59043;BME280;44826;51.596;5.624;2022-12-10T09:30:28;101005.97;;;-1.68;91.61
59043;BME280;44826;51.596;5.624;2022-12-10T09:32:54;101000.03;;;-1.66;90.60
59043;BME280;44826;51.596;5.624;2022-12-10T09:35:19;101000.03;;;-1.66;91.39
59043;BME280;44826;51.596;5.624;2022-12-10T09:37:45;101009.44;;;-1.65;90.82
59043;BME280;44826;51.596;5.624;2022-12-10T09:40:15;101011.97;;;-1.65;91.58
59043;BME280;44826;51.596;5.624;2022-12-10T09:42:52;101012.88;;;-1.63;91.48
59043;BME280;44826;51.596;5.624;2022-12-10T09:45:37;101003.50;;;-1.64;91.33
59043;BME280;44826;51.596;5.624;2022-12-10T09:48:16;101010.25;;;-1.66;91.22
59043;BME280;44826;51.596;5.624;2022-12-10T09:50:51;101011.06;;;-1.68;91.31
59043;BME280;44826;51.596;5.624;2022-12-10T09:53:19;101008.50;;;-1.68;91.52
59043;BME280;44826;51.596;5.624;2022-12-10T09:55:47;101015.34;;;-1.66;91.71
59043;BME280;44826;51.596;5.624;2022-12-10T09:58:24;101010.31;;;-1.65;91.38
59043;BME280;44826;51.596;5.624;2022-12-10T10:01:02;101017.06;;;-1.65;91.03
59043;BME280;44826;51.596;5.624;2022-12-10T10:03:32;101017.06;;;-1.65;91.28
59043;BME280;44826;51.596;5.624;2022-12-10T10:05:58;101012.03;;;-1.64;91.77
59043;BME280;44826;51.596;5.624;2022-12-10T10:08:37;101020.63;;;-1.60;91.42
59043;BME280;44826;51.596;5.624;2022-12-10T10:11:03;101020.63;;;-1.60;91.29
59043;BME280;44826;51.596;5.624;2022-12-10T10:13:42;101022.28;;;-1.62;91.21
59043;BME280;44826;51.596;5.624;2022-12-10T10:18:43;101023.81;;;-1.68;91.74
59043;BME280;44826;51.596;5.624;2022-12-10T10:21:17;101024.72;;;-1.65;91.41
59043;BME280;44826;51.596;5.624;2022-12-10T10:23:45;101028.19;;;-1.63;91.69
59043;BME280;44826;51.596;5.624;2022-12-10T10:26:11;101024.78;;;-1.64;91.46
59043;BME280;44826;51.596;5.624;2022-12-10T10:28:38;101021.44;;;-1.61;91.02
59043;BME280;44826;51.596;5.624;2022-12-10T10:31:16;101027.47;;;-1.59;91.16
59043;BME280;44826;51.596;5.624;2022-12-10T10:34:27;101025.84;;;-1.56;91.52
59043;BME280;44826;51.596;5.624;2022-12-10T10:37:00;101026.72;;;-1.55;91.21
59043;BME280;44826;51.596;5.624;2022-12-10T10:39:30;101028.47;;;-1.54;91.44
59043;BME280;44826;51.596;5.624;2022-12-10T10:41:58;101028.38;;;-1.57;91.72
59043;BME280;44826;51.596;5.624;2022-12-10T10:44:33;101022.31;;;-1.61;91.08
59043;BME280;44826;51.596;5.624;2022-12-10T10:47:00;101022.28;;;-1.62;90.80
59043;BME280;44826;51.596;5.624;2022-12-10T10:49:30;101021.34;;;-1.64;90.85
59043;BME280;44826;51.596;5.624;2022-12-10T10:52:19;101016.22;;;-1.66;91.65
59043;BME280;44826;51.596;5.624;2022-12-10T10:54:46;101016.31;;;-1.63;91.80
59043;BME280;44826;51.596;5.624;2022-12-10T11:00:05;101008.88;;;-1.55;91.96
59043;BME280;44826;51.596;5.624;2022-12-10T11:02:36;101011.47;;;-1.52;91.32
59043;BME280;44826;51.596;5.624;2022-12-10T11:05:23;101007.28;;;-1.50;92.07
59043;BME280;44826;51.596;5.624;2022-12-10T11:07:59;101007.38;;;-1.47;92.54
59043;BME280;44826;51.596;5.624;2022-12-10T11:10:26;101015.97;;;-1.43;91.31
59043;BME280;44826;51.596;5.624;2022-12-10T11:13:04;101005.00;;;-1.41;91.36
59043;BME280;44826;51.596;5.624;2022-12-10T11:15:34;101002.53;;;-1.38;91.72
59043;BME280;44826;51.596;5.624;2022-12-10T11:18:00;101002.66;;;-1.31;91.30
59043;BME280;44826;51.596;5.624;2022-12-10T11:20:33;101009.50;;;-1.30;91.56
59043;BME280;44826;51.596;5.624;2022-12-10T11:23:09;101007.75;;;-1.31;91.17
59043;BME280;44826;51.596;5.624;2022-12-10T11:25:47;100999.28;;;-1.30;91.51
59043;BME280;44826;51.596;5.624;2022-12-10T11:31:41;101011.38;;;-1.23;91.48
59043;BME280;44826;51.596;5.624;2022-12-10T11:34:21;101013.22;;;-1.17;91.66
59043;BME280;44826;51.596;5.624;2022-12-10T11:42:19;101004.94;;;-1.09;91.81
59043;BME280;44826;51.596;5.624;2022-12-10T11:50:50;101003.22;;;-1.10;90.90
59043;BME280;44826;51.596;5.624;2022-12-10T11:56:22;101009.97;;;-1.12;90.75
59043;BME280;44826;51.596;5.624;2022-12-10T11:59:02;101015.03;;;-1.13;91.27
59043;BME280;44826;51.596;5.624;2022-12-10T12:04:26;101017.63;;;-1.12;90.91
59043;BME280;44826;51.596;5.624;2022-12-10T12:13:00;101005.94;;;-1.03;91.19
59043;BME280;44826;51.596;5.624;2022-12-10T12:18:21;101000.03;;;-0.99;91.29
59043;BME280;44826;51.596;5.624;2022-12-10T12:20:58;100997.56;;;-0.96;90.67
59043;BME280;44826;51.596;5.624;2022-12-10T12:26:25;100996.91;;;-0.89;90.20
59043;BME280;44826;51.596;5.624;2022-12-10T12:28:56;100997.81;;;-0.87;90.10
59043;BME280;44826;51.596;5.624;2022-12-10T12:31:34;100994.38;;;-0.87;90.31
59043;BME280;44826;51.596;5.624;2022-12-10T12:34:11;100998.63;;;-0.88;90.36
59043;BME280;44826;51.596;5.624;2022-12-10T12:36:39;101003.75;;;-0.88;90.51
59043;BME280;44826;51.596;5.624;2022-12-10T12:39:17;101002.03;;;-0.87;90.91
59043;BME280;44826;51.596;5.624;2022-12-10T12:50:18;101010.59;;;-0.85;89.88
59043;BME280;44826;51.596;5.624;2022-12-10T12:52:52;101010.50;;;-0.90;90.37
59043;BME280;44826;51.596;5.624;2022-12-10T12:58:31;101011.16;;;-0.97;90.23
59043;BME280;44826;51.596;5.624;2022-12-10T13:01:08;101007.69;;;-1.01;90.50
59043;BME280;44826;51.596;5.624;2022-12-10T13:03:43;101010.16;;;-1.02;90.84
59043;BME280;44826;51.596;5.624;2022-12-10T13:11:28;101014.59;;;-0.97;91.04
59043;BME280;44826;51.596;5.624;2022-12-10T13:19:16;101005.34;;;-0.92;90.39
59043;BME280;44826;51.596;5.624;2022-12-10T13:24:42;100996.81;;;-0.92;90.58
59043;BME280;44826;51.596;5.624;2022-12-10T13:29:55;101002.69;;;-0.96;90.97
59043;BME280;44826;51.596;5.624;2022-12-10T13:35:28;101014.63;;;-0.95;90.95
59043;BME280;44826;51.596;5.624;2022-12-10T13:38:18;101008.59;;;-0.99;90.51
59043;BME280;44826;51.596;5.624;2022-12-10T13:41:00;101006.78;;;-1.03;90.97
59043;BME280;44826;51.596;5.624;2022-12-10T13:43:55;101016.06;;;-1.07;90.59
59043;BME280;44826;51.596;5.624;2022-12-10T13:46:58;101011.69;;;-1.11;90.67
59043;BME280;44826;51.596;5.624;2022-12-10T13:49:29;101010.84;;;-1.11;90.62
59043;BME280;44826;51.596;5.624;2022-12-10T13:52:06;101013.50;;;-1.07;91.30
59043;BME280;44826;51.596;5.624;2022-12-10T13:57:34;101019.63;;;-1.00;91.03
59043;BME280;44826;51.596;5.624;2022-12-10T14:00:15;101017.91;;;-0.99;91.65
59043;BME280;44826;51.596;5.624;2022-12-10T14:02:57;101024.84;;;-0.95;90.87
59043;BME280;44826;51.596;5.624;2022-12-10T14:05:55;101028.28;;;-0.95;90.80
59043;BME280;44826;51.596;5.624;2022-12-10T14:08:30;101032.50;;;-0.95;90.43
59043;BME280;44826;51.596;5.624;2022-12-10T14:10:57;101041.88;;;-0.96;90.54
59043;BME280;44826;51.596;5.624;2022-12-10T14:13:39;101040.97;;;-0.96;90.68
59043;BME280;44826;51.596;5.624;2022-12-10T14:16:10;101036.63;;;-1.00;91.02
59043;BME280;44826;51.596;5.624;2022-12-10T14:18:37;101047.66;;;-1.01;90.44
59043;BME280;44826;51.596;5.624;2022-12-10T14:21:05;101046.78;;;-1.03;90.95
59043;BME280;44826;51.596;5.624;2022-12-10T14:23:33;101042.53;;;-1.03;91.11
59043;BME280;44826;51.596;5.624;2022-12-10T14:26:04;101040.00;;;-1.01;90.83
59043;BME280;44826;51.596;5.624;2022-12-10T14:28:30;101032.31;;;-1.03;90.60